sensor_id;sensor_type;location;lat;lon;timestamp;P1;durP1;ratioP1;P2;durP2;ratioP2
31906;SDS011;18455;50.858;13.662;2023-02-14T00:04:39;71.17;;;21.43;;
31906;SDS011;18455;50.858;13.662;2023-02-14T00:09:43;58.20;;;21.37;;
31906;SDS011;18455;50.858;13.662;2023-02-14T00:14:43;52.80;;;20.70;;
31906;SDS011;18455;50.858;13.662;2023-02-14T00:20:02;47.43;;;19.57;;
31906;SDS011;18455;50.858;13.662;2023-02-14T00:25:03;55.37;;;19.43;;
31906;SDS011;18455;50.858;13.662;2023-02-14T00:30:04;52.83;;;18.80;;
31906;SDS011;18455;50.858;13.662;2023-02-14T00:35:08;56.77;;;20.33;;
31906;SDS011;18455;50.858;13.662;2023-02-14T00:40:09;69.47;;;21.27;;
31906;SDS011;18455;50.858;13.662;2023-02-14T00:45:10;52.07;;;18.67;;
31906;SDS011;18455;50.858;13.662;2023-02-14T00:50:10;58.23;;;20.57;;
31906;SDS011;18455;50.858;13.662;2023-02-14T00:55:10;50.87;;;18.27;;
31906;SDS011;18455;50.858;13.662;2023-02-14T01:00:11;49.13;;;17.30;;
31906;SDS011;18455;50.858;13.662;2023-02-14T01:05:12;54.87;;;17.87;;
31906;SDS011;18455;50.858;13.662;2023-02-14T01:10:12;44.20;;;17.23;;
31906;SDS011;18455;50.858;13.662;2023-02-14T01:15:13;45.03;;;17.30;;
31906;SDS011;18455;50.858;13.662;2023-02-14T01:20:13;42.70;;;17.43;;
31906;SDS011;18455;50.858;13.662;2023-02-14T01:25:14;40.87;;;14.43;;
31906;SDS011;18455;50.858;13.662;2023-02-14T01:30:14;44.37;;;17.30;;
31906;SDS011;18455;50.858;13.662;2023-02-14T01:35:15;46.43;;;18.03;;
31906;SDS011;18455;50.858;13.662;2023-02-14T01:40:15;42.73;;;17.80;;
31906;SDS011;18455;50.858;13.662;2023-02-14T01:45:17;40.97;;;16.47;;
31906;SDS011;18455;50.858;13.662;2023-02-14T01:50:21;34.90;;;15.30;;
31906;SDS011;18455;50.858;13.662;2023-02-14T01:55:26;41.07;;;17.00;;
31906;SDS011;18455;50.858;13.662;2023-02-14T02:00:28;32.60;;;14.97;;
31906;SDS011;18455;50.858;13.662;2023-02-14T02:05:48;41.30;;;16.50;;
31906;SDS011;18455;50.858;13.662;2023-02-14T02:10:50;36.93;;;15.67;;
31906;SDS011;18455;50.858;13.662;2023-02-14T02:27:10;39.40;;;16.20;;
31906;SDS011;18455;50.858;13.662;2023-02-14T02:48:54;40.00;;;15.10;;
31906;SDS011;18455;50.858;13.662;2023-02-14T02:54:02;34.60;;;15.37;;
31906;SDS011;18455;50.858;13.662;2023-02-14T02:59:14;30.80;;;14.93;;
31906;SDS011;18455;50.858;13.662;2023-02-14T03:04:24;33.67;;;14.93;;
31906;SDS011;18455;50.858;13.662;2023-02-14T03:09:49;40.47;;;17.03;;
31906;SDS011;18455;50.858;13.662;2023-02-14T03:25:54;48.47;;;20.17;;
31906;SDS011;18455;50.858;13.662;2023-02-14T03:36:19;45.90;;;19.17;;
31906;SDS011;18455;50.858;13.662;2023-02-14T03:41:32;32.63;;;16.67;;
31906;SDS011;18455;50.858;13.662;2023-02-14T03:46:38;36.37;;;16.53;;
31906;SDS011;18455;50.858;13.662;2023-02-14T03:51:42;42.50;;;18.60;;
31906;SDS011;18455;50.858;13.662;2023-02-14T03:56:49;43.07;;;19.33;;
31906;SDS011;18455;50.858;13.662;2023-02-14T04:06:56;28.17;;;14.37;;
31906;SDS011;18455;50.858;13.662;2023-02-14T04:11:56;31.67;;;16.57;;
31906;SDS011;18455;50.858;13.662;2023-02-14T04:16:57;32.13;;;16.80;;
31906;SDS011;18455;50.858;13.662;2023-02-14T04:22:16;36.27;;;16.03;;
31906;SDS011;18455;50.858;13.662;2023-02-14T04:27:16;33.40;;;16.73;;
31906;SDS011;18455;50.858;13.662;2023-02-14T04:32:18;33.50;;;15.53;;
31906;SDS011;18455;50.858;13.662;2023-02-14T04:37:19;31.50;;;15.80;;
31906;SDS011;18455;50.858;13.662;2023-02-14T04:42:20;23.40;;;13.63;;
31906;SDS011;18455;50.858;13.662;2023-02-14T04:47:20;31.80;;;16.67;;
31906;SDS011;18455;50.858;13.662;2023-02-14T04:52:21;25.60;;;13.70;;
31906;SDS011;18455;50.858;13.662;2023-02-14T04:57:21;26.77;;;14.40;;
31906;SDS011;18455;50.858;13.662;2023-02-14T05:02:21;23.00;;;13.73;;
31906;SDS011;18455;50.858;13.662;2023-02-14T05:07:22;24.63;;;13.30;;
31906;SDS011;18455;50.858;13.662;2023-02-14T05:12:22;22.63;;;12.73;;
31906;SDS011;18455;50.858;13.662;2023-02-14T05:17:22;25.83;;;13.67;;
31906;SDS011;18455;50.858;13.662;2023-02-14T05:22:23;25.13;;;12.77;;
31906;SDS011;18455;50.858;13.662;2023-02-14T05:27:23;24.57;;;12.83;;
31906;SDS011;18455;50.858;13.662;2023-02-14T05:32:23;22.60;;;13.73;;
31906;SDS011;18455;50.858;13.662;2023-02-14T05:37:24;29.07;;;14.80;;
31906;SDS011;18455;50.858;13.662;2023-02-14T05:42:24;31.07;;;15.13;;
31906;SDS011;18455;50.858;13.662;2023-02-14T05:47:25;28.77;;;15.63;;
31906;SDS011;18455;50.858;13.662;2023-02-14T05:52:25;28.27;;;15.20;;
31906;SDS011;18455;50.858;13.662;2023-02-14T05:57:26;29.13;;;16.00;;
31906;SDS011;18455;50.858;13.662;2023-02-14T06:02:26;25.77;;;15.17;;
31906;SDS011;18455;50.858;13.662;2023-02-14T06:07:26;24.93;;;15.13;;
31906;SDS011;18455;50.858;13.662;2023-02-14T06:12:27;30.30;;;18.37;;
31906;SDS011;18455;50.858;13.662;2023-02-14T06:17:27;32.73;;;18.20;;
31906;SDS011;18455;50.858;13.662;2023-02-14T06:22:27;22.10;;;13.30;;
31906;SDS011;18455;50.858;13.662;2023-02-14T06:27:28;19.37;;;11.43;;
31906;SDS011;18455;50.858;13.662;2023-02-14T06:32:29;20.03;;;12.07;;
31906;SDS011;18455;50.858;13.662;2023-02-14T06:37:29;22.67;;;14.77;;
31906;SDS011;18455;50.858;13.662;2023-02-14T06:42:30;23.90;;;14.20;;
31906;SDS011;18455;50.858;13.662;2023-02-14T06:47:30;37.27;;;20.83;;
31906;SDS011;18455;50.858;13.662;2023-02-14T06:52:31;34.50;;;18.50;;
31906;SDS011;18455;50.858;13.662;2023-02-14T06:57:32;34.70;;;17.60;;
31906;SDS011;18455;50.858;13.662;2023-02-14T07:02:32;34.70;;;16.53;;
31906;SDS011;18455;50.858;13.662;2023-02-14T07:07:33;27.83;;;15.30;;
31906;SDS011;18455;50.858;13.662;2023-02-14T07:12:33;26.60;;;15.53;;
31906;SDS011;18455;50.858;13.662;2023-02-14T07:17:34;30.50;;;15.77;;
31906;SDS011;18455;50.858;13.662;2023-02-14T07:22:34;28.07;;;15.03;;
31906;SDS011;18455;50.858;13.662;2023-02-14T07:27:35;27.37;;;14.97;;
31906;SDS011;18455;50.858;13.662;2023-02-14T07:32:36;25.60;;;14.67;;
31906;SDS011;18455;50.858;13.662;2023-02-14T07:37:37;21.17;;;12.77;;
31906;SDS011;18455;50.858;13.662;2023-02-14T07:42:37;24.33;;;12.90;;
31906;SDS011;18455;50.858;13.662;2023-02-14T07:47:38;21.90;;;12.03;;
31906;SDS011;18455;50.858;13.662;2023-02-14T07:52:38;21.03;;;11.73;;
31906;SDS011;18455;50.858;13.662;2023-02-14T07:57:39;32.53;;;16.60;;
31906;SDS011;18455;50.858;13.662;2023-02-14T08:02:39;46.57;;;23.93;;
31906;SDS011;18455;50.858;13.662;2023-02-14T08:07:40;33.53;;;18.27;;
31906;SDS011;18455;50.858;13.662;2023-02-14T08:12:42;24.73;;;13.50;;
31906;SDS011;18455;50.858;13.662;2023-02-14T08:18:00;23.07;;;13.90;;
31906;SDS011;18455;50.858;13.662;2023-02-14T08:23:00;29.07;;;14.47;;
31906;SDS011;18455;50.858;13.662;2023-02-14T08:28:04;27.13;;;13.33;;
31906;SDS011;18455;50.858;13.662;2023-02-14T08:33:04;34.27;;;18.93;;
31906;SDS011;18455;50.858;13.662;2023-02-14T08:38:05;23.60;;;13.43;;
31906;SDS011;18455;50.858;13.662;2023-02-14T08:43:05;31.57;;;18.00;;
31906;SDS011;18455;50.858;13.662;2023-02-14T08:48:07;27.37;;;14.27;;
31906;SDS011;18455;50.858;13.662;2023-02-14T08:53:10;22.70;;;13.17;;
31906;SDS011;18455;50.858;13.662;2023-02-14T08:58:11;20.63;;;10.67;;
31906;SDS011;18455;50.858;13.662;2023-02-14T09:03:12;18.07;;;11.57;;
31906;SDS011;18455;50.858;13.662;2023-02-14T09:08:12;19.40;;;10.00;;
31906;SDS011;18455;50.858;13.662;2023-02-14T09:13:12;18.30;;;10.20;;
31906;SDS011;18455;50.858;13.662;2023-02-14T09:18:14;14.00;;;7.73;;
31906;SDS011;18455;50.858;13.662;2023-02-14T09:23:15;16.77;;;10.73;;
31906;SDS011;18455;50.858;13.662;2023-02-14T09:28:15;17.33;;;8.93;;
31906;SDS011;18455;50.858;13.662;2023-02-14T09:33:16;17.57;;;9.63;;
31906;SDS011;18455;50.858;13.662;2023-02-14T09:38:16;13.33;;;7.83;;
31906;SDS011;18455;50.858;13.662;2023-02-14T09:43:22;17.60;;;9.87;;
31906;SDS011;18455;50.858;13.662;2023-02-14T09:48:34;12.17;;;8.07;;
31906;SDS011;18455;50.858;13.662;2023-02-14T09:53:39;15.03;;;7.97;;
31906;SDS011;18455;50.858;13.662;2023-02-14T09:58:59;15.03;;;8.53;;
31906;SDS011;18455;50.858;13.662;2023-02-14T10:14:49;12.00;;;6.83;;
31906;SDS011;18455;50.858;13.662;2023-02-14T10:19:53;12.37;;;7.43;;
31906;SDS011;18455;50.858;13.662;2023-02-14T10:25:04;13.87;;;7.53;;
31906;SDS011;18455;50.858;13.662;2023-02-14T10:30:17;10.40;;;7.10;;
31906;SDS011;18455;50.858;13.662;2023-02-14T10:35:22;13.23;;;8.87;;
31906;SDS011;18455;50.858;13.662;2023-02-14T10:40:34;13.50;;;7.10;;
31906;SDS011;18455;50.858;13.662;2023-02-14T10:45:47;12.40;;;7.50;;
31906;SDS011;18455;50.858;13.662;2023-02-14T10:56:10;12.87;;;7.20;;
31906;SDS011;18455;50.858;13.662;2023-02-14T11:01:17;12.80;;;8.23;;
31906;SDS011;18455;50.858;13.662;2023-02-14T11:06:18;11.57;;;7.23;;
31906;SDS011;18455;50.858;13.662;2023-02-14T11:11:36;12.97;;;7.67;;
31906;SDS011;18455;50.858;13.662;2023-02-14T11:16:40;18.77;;;9.40;;
31906;SDS011;18455;50.858;13.662;2023-02-14T11:21:42;16.20;;;8.90;;
31906;SDS011;18455;50.858;13.662;2023-02-14T11:26:47;18.10;;;9.27;;
31906;SDS011;18455;50.858;13.662;2023-02-14T11:31:48;18.67;;;9.40;;
31906;SDS011;18455;50.858;13.662;2023-02-14T11:36:48;23.40;;;12.13;;
31906;SDS011;18455;50.858;13.662;2023-02-14T11:41:49;17.43;;;8.87;;
31906;SDS011;18455;50.858;13.662;2023-02-14T11:46:52;20.13;;;11.80;;
31906;SDS011;18455;50.858;13.662;2023-02-14T11:51:55;19.77;;;10.67;;
31906;SDS011;18455;50.858;13.662;2023-02-14T11:57:01;24.70;;;12.90;;
31906;SDS011;18455;50.858;13.662;2023-02-14T12:02:47;21.87;;;12.50;;
31906;SDS011;18455;50.858;13.662;2023-02-14T12:07:35;23.20;;;12.10;;
31906;SDS011;18455;50.858;13.662;2023-02-14T12:12:36;23.53;;;12.53;;
31906;SDS011;18455;50.858;13.662;2023-02-14T12:17:39;18.10;;;10.70;;
31906;SDS011;18455;50.858;13.662;2023-02-14T12:28:04;25.47;;;13.93;;
31906;SDS011;18455;50.858;13.662;2023-02-14T12:33:16;22.27;;;12.10;;
31906;SDS011;18455;50.858;13.662;2023-02-14T12:38:38;22.50;;;12.77;;
31906;SDS011;18455;50.858;13.662;2023-02-14T12:43:52;23.47;;;11.77;;
31906;SDS011;18455;50.858;13.662;2023-02-14T12:54:21;30.37;;;14.37;;
31906;SDS011;18455;50.858;13.662;2023-02-14T12:59:31;26.80;;;14.30;;
31906;SDS011;18455;50.858;13.662;2023-02-14T13:10:39;26.47;;;14.00;;
31906;SDS011;18455;50.858;13.662;2023-02-14T13:21:03;31.77;;;16.67;;
31906;SDS011;18455;50.858;13.662;2023-02-14T13:26:06;26.00;;;15.70;;
31906;SDS011;18455;50.858;13.662;2023-02-14T13:31:17;23.63;;;10.83;;
31906;SDS011;18455;50.858;13.662;2023-02-14T13:36:27;20.43;;;12.27;;
31906;SDS011;18455;50.858;13.662;2023-02-14T13:41:28;26.00;;;15.23;;
31906;SDS011;18455;50.858;13.662;2023-02-14T13:51:48;22.20;;;13.20;;
31906;SDS011;18455;50.858;13.662;2023-02-14T13:56:49;32.50;;;20.50;;
31906;SDS011;18455;50.858;13.662;2023-02-14T14:01:49;26.37;;;14.13;;
31906;SDS011;18455;50.858;13.662;2023-02-14T14:07:24;25.97;;;14.33;;
31906;SDS011;18455;50.858;13.662;2023-02-14T14:17:25;23.70;;;14.70;;
31906;SDS011;18455;50.858;13.662;2023-02-14T14:22:26;20.20;;;13.33;;
31906;SDS011;18455;50.858;13.662;2023-02-14T14:27:31;21.13;;;14.00;;
31906;SDS011;18455;50.858;13.662;2023-02-14T14:32:36;19.67;;;14.07;;
31906;SDS011;18455;50.858;13.662;2023-02-14T14:42:51;23.02;;;14.68;;
31906;SDS011;18455;50.858;13.662;2023-02-14T14:47:53;18.63;;;12.80;;
31906;SDS011;18455;50.858;13.662;2023-02-14T14:53:02;16.92;;;13.18;;
31906;SDS011;18455;50.858;13.662;2023-02-14T14:58:05;16.38;;;12.55;;
31906;SDS011;18455;50.858;13.662;2023-02-14T15:13:14;18.08;;;14.35;;
31906;SDS011;18455;50.858;13.662;2023-02-14T15:18:33;20.13;;;13.60;;
31906;SDS011;18455;50.858;13.662;2023-02-14T15:23:33;20.60;;;14.07;;
31906;SDS011;18455;50.858;13.662;2023-02-14T15:28:34;21.10;;;14.65;;
31906;SDS011;18455;50.858;13.662;2023-02-14T15:33:36;23.65;;;15.85;;
31906;SDS011;18455;50.858;13.662;2023-02-14T15:38:37;25.80;;;17.13;;
31906;SDS011;18455;50.858;13.662;2023-02-14T15:43:39;26.63;;;17.50;;
31906;SDS011;18455;50.858;13.662;2023-02-14T15:48:40;24.60;;;16.27;;
31906;SDS011;18455;50.858;13.662;2023-02-14T15:53:47;27.83;;;17.57;;
31906;SDS011;18455;50.858;13.662;2023-02-14T15:59:00;31.00;;;18.67;;
31906;SDS011;18455;50.858;13.662;2023-02-14T16:04:02;49.30;;;27.90;;
31906;SDS011;18455;50.858;13.662;2023-02-14T16:09:06;39.30;;;24.03;;
31906;SDS011;18455;50.858;13.662;2023-02-14T16:14:58;40.93;;;21.87;;
31906;SDS011;18455;50.858;13.662;2023-02-14T16:19:59;29.87;;;18.37;;
31906;SDS011;18455;50.858;13.662;2023-02-14T16:25:20;36.03;;;18.27;;
31906;SDS011;18455;50.858;13.662;2023-02-14T16:30:20;44.50;;;25.60;;
31906;SDS011;18455;50.858;13.662;2023-02-14T16:35:21;32.10;;;18.10;;
31906;SDS011;18455;50.858;13.662;2023-02-14T16:40:22;40.73;;;23.70;;
31906;SDS011;18455;50.858;13.662;2023-02-14T16:45:25;70.90;;;37.73;;
31906;SDS011;18455;50.858;13.662;2023-02-14T16:50:25;37.60;;;21.73;;
31906;SDS011;18455;50.858;13.662;2023-02-14T16:55:25;45.83;;;25.13;;
31906;SDS011;18455;50.858;13.662;2023-02-14T17:00:28;42.97;;;24.20;;
31906;SDS011;18455;50.858;13.662;2023-02-14T17:11:23;43.70;;;24.97;;
31906;SDS011;18455;50.858;13.662;2023-02-14T17:16:24;44.70;;;27.57;;
31906;SDS011;18455;50.858;13.662;2023-02-14T17:21:25;40.37;;;25.33;;
31906;SDS011;18455;50.858;13.662;2023-02-14T17:26:25;33.07;;;19.07;;
31906;SDS011;18455;50.858;13.662;2023-02-14T17:31:25;40.60;;;20.60;;
31906;SDS011;18455;50.858;13.662;2023-02-14T17:36:27;38.97;;;22.97;;
31906;SDS011;18455;50.858;13.662;2023-02-14T17:41:29;37.87;;;19.93;;
31906;SDS011;18455;50.858;13.662;2023-02-14T17:46:30;28.87;;;15.23;;
31906;SDS011;18455;50.858;13.662;2023-02-14T17:51:30;26.80;;;14.93;;
31906;SDS011;18455;50.858;13.662;2023-02-14T17:56:31;29.03;;;17.63;;
31906;SDS011;18455;50.858;13.662;2023-02-14T18:01:32;33.63;;;16.77;;
31906;SDS011;18455;50.858;13.662;2023-02-14T18:06:33;24.60;;;14.37;;
31906;SDS011;18455;50.858;13.662;2023-02-14T18:11:33;28.90;;;16.70;;
31906;SDS011;18455;50.858;13.662;2023-02-14T18:16:35;30.33;;;17.57;;
31906;SDS011;18455;50.858;13.662;2023-02-14T18:21:37;33.03;;;18.13;;
31906;SDS011;18455;50.858;13.662;2023-02-14T18:26:39;23.80;;;13.13;;
31906;SDS011;18455;50.858;13.662;2023-02-14T18:31:41;26.47;;;15.00;;
31906;SDS011;18455;50.858;13.662;2023-02-14T18:36:42;29.60;;;15.87;;
31906;SDS011;18455;50.858;13.662;2023-02-14T18:41:42;21.03;;;12.47;;
31906;SDS011;18455;50.858;13.662;2023-02-14T18:46:42;28.30;;;15.77;;
31906;SDS011;18455;50.858;13.662;2023-02-14T18:51:43;26.77;;;15.27;;
31906;SDS011;18455;50.858;13.662;2023-02-14T18:56:43;26.87;;;14.70;;
31906;SDS011;18455;50.858;13.662;2023-02-14T19:01:44;27.67;;;16.13;;
31906;SDS011;18455;50.858;13.662;2023-02-14T19:06:44;21.80;;;14.03;;
31906;SDS011;18455;50.858;13.662;2023-02-14T19:11:45;29.27;;;16.63;;
31906;SDS011;18455;50.858;13.662;2023-02-14T19:16:45;31.37;;;17.90;;
31906;SDS011;18455;50.858;13.662;2023-02-14T19:21:50;37.23;;;21.90;;
31906;SDS011;18455;50.858;13.662;2023-02-14T19:26:51;33.17;;;17.23;;
31906;SDS011;18455;50.858;13.662;2023-02-14T19:31:52;58.10;;;30.10;;
31906;SDS011;18455;50.858;13.662;2023-02-14T19:36:54;47.27;;;30.93;;
31906;SDS011;18455;50.858;13.662;2023-02-14T19:41:56;42.07;;;26.93;;
31906;SDS011;18455;50.858;13.662;2023-02-14T19:46:57;28.73;;;20.70;;
31906;SDS011;18455;50.858;13.662;2023-02-14T19:52:00;14.00;;;8.93;;
31906;SDS011;18455;50.858;13.662;2023-02-14T19:57:00;20.10;;;10.37;;
31906;SDS011;18455;50.858;13.662;2023-02-14T20:02:01;16.47;;;9.33;;
31906;SDS011;18455;50.858;13.662;2023-02-14T20:07:01;15.20;;;7.33;;
31906;SDS011;18455;50.858;13.662;2023-02-14T20:12:01;18.63;;;10.90;;
31906;SDS011;18455;50.858;13.662;2023-02-14T20:17:03;15.17;;;8.17;;
31906;SDS011;18455;50.858;13.662;2023-02-14T20:22:04;10.70;;;6.43;;
31906;SDS011;18455;50.858;13.662;2023-02-14T20:27:07;16.27;;;8.47;;
31906;SDS011;18455;50.858;13.662;2023-02-14T20:32:07;11.43;;;6.30;;
31906;SDS011;18455;50.858;13.662;2023-02-14T20:37:09;8.73;;;5.00;;
31906;SDS011;18455;50.858;13.662;2023-02-14T20:42:10;14.20;;;7.70;;
31906;SDS011;18455;50.858;13.662;2023-02-14T20:47:10;10.90;;;6.60;;
31906;SDS011;18455;50.858;13.662;2023-02-14T20:52:10;12.90;;;6.63;;
31906;SDS011;18455;50.858;13.662;2023-02-14T20:57:11;9.13;;;5.90;;
31906;SDS011;18455;50.858;13.662;2023-02-14T21:02:11;9.93;;;6.00;;
31906;SDS011;18455;50.858;13.662;2023-02-14T21:07:12;10.27;;;5.80;;
31906;SDS011;18455;50.858;13.662;2023-02-14T21:12:12;9.60;;;5.37;;
31906;SDS011;18455;50.858;13.662;2023-02-14T21:17:13;9.47;;;4.90;;
31906;SDS011;18455;50.858;13.662;2023-02-14T21:22:13;5.37;;;3.80;;
31906;SDS011;18455;50.858;13.662;2023-02-14T21:27:14;6.57;;;4.33;;
31906;SDS011;18455;50.858;13.662;2023-02-14T21:32:15;6.77;;;3.70;;
31906;SDS011;18455;50.858;13.662;2023-02-14T21:37:15;10.03;;;4.00;;
31906;SDS011;18455;50.858;13.662;2023-02-14T21:42:15;4.67;;;2.87;;
31906;SDS011;18455;50.858;13.662;2023-02-14T21:47:17;3.77;;;2.67;;
31906;SDS011;18455;50.858;13.662;2023-02-14T21:52:18;4.83;;;3.20;;
31906;SDS011;18455;50.858;13.662;2023-02-14T21:57:18;6.47;;;3.13;;
31906;SDS011;18455;50.858;13.662;2023-02-14T22:02:19;4.47;;;2.50;;
31906;SDS011;18455;50.858;13.662;2023-02-14T22:07:19;3.67;;;2.73;;
31906;SDS011;18455;50.858;13.662;2023-02-14T22:12:19;8.57;;;3.00;;
31906;SDS011;18455;50.858;13.662;2023-02-14T22:17:20;3.63;;;2.23;;
31906;SDS011;18455;50.858;13.662;2023-02-14T22:22:20;4.07;;;2.60;;
31906;SDS011;18455;50.858;13.662;2023-02-14T22:27:21;12.03;;;7.23;;
31906;SDS011;18455;50.858;13.662;2023-02-14T22:32:21;29.67;;;13.13;;
31906;SDS011;18455;50.858;13.662;2023-02-14T22:37:21;21.70;;;9.73;;
31906;SDS011;18455;50.858;13.662;2023-02-14T22:42:22;17.63;;;8.90;;
31906;SDS011;18455;50.858;13.662;2023-02-14T22:47:22;9.60;;;5.90;;
31906;SDS011;18455;50.858;13.662;2023-02-14T22:52:22;3.23;;;2.20;;
31906;SDS011;18455;50.858;13.662;2023-02-14T22:57:23;3.63;;;3.07;;
31906;SDS011;18455;50.858;13.662;2023-02-14T23:02:25;22.57;;;8.97;;
31906;SDS011;18455;50.858;13.662;2023-02-14T23:07:26;20.43;;;7.20;;
31906;SDS011;18455;50.858;13.662;2023-02-14T23:12:26;15.60;;;5.77;;
31906;SDS011;18455;50.858;13.662;2023-02-14T23:17:45;23.60;;;8.60;;
31906;SDS011;18455;50.858;13.662;2023-02-14T23:23:04;5.60;;;2.87;;
31906;SDS011;18455;50.858;13.662;2023-02-14T23:28:04;12.70;;;4.43;;
31906;SDS011;18455;50.858;13.662;2023-02-14T23:33:05;16.00;;;6.50;;
31906;SDS011;18455;50.858;13.662;2023-02-14T23:38:05;12.13;;;6.13;;
31906;SDS011;18455;50.858;13.662;2023-02-14T23:43:06;8.53;;;4.27;;
31906;SDS011;18455;50.858;13.662;2023-02-14T23:48:06;4.73;;;3.40;;
31906;SDS011;18455;50.858;13.662;2023-02-14T23:53:06;2.50;;;1.77;;
31906;SDS011;18455;50.858;13.662;2023-02-14T23:58:07;3.63;;;2.40;;
